sensor_id;sensor_type;location;lat;lon;timestamp;temperature;humidity
29571;DHT22;16814;52.118;11.436;2023-02-28T00:01:10;0.10;99.90
29571;DHT22;16814;52.118;11.436;2023-02-28T00:03:36;0.10;99.90
29571;DHT22;16814;52.118;11.436;2023-02-28T00:06:05;0.10;99.90
29571;DHT22;16814;52.118;11.436;2023-02-28T00:08:31;0.20;99.90
29571;DHT22;16814;52.118;11.436;2023-02-28T00:11:04;0.20;99.90
29571;DHT22;16814;52.118;11.436;2023-02-28T00:13:30;0.10;99.90
29571;DHT22;16814;52.118;11.436;2023-02-28T00:16:08;0.00;99.90
29571;DHT22;16814;52.118;11.436;2023-02-28T00:18:38;-0.10;99.90
29571;DHT22;16814;52.118;11.436;2023-02-28T00:21:04;-0.10;99.90
29571;DHT22;16814;52.118;11.436;2023-02-28T00:23:35;-0.20;99.90
29571;DHT22;16814;52.118;11.436;2023-02-28T00:26:00;-0.20;99.90
29571;DHT22;16814;52.118;11.436;2023-02-28T00:28:26;-0.20;99.90
29571;DHT22;16814;52.118;11.436;2023-02-28T00:30:52;-0.10;99.90
29571;DHT22;16814;52.118;11.436;2023-02-28T00:33:18;-0.10;99.90
29571;DHT22;16814;52.118;11.436;2023-02-28T00:35:43;0.00;99.90
29571;DHT22;16814;52.118;11.436;2023-02-28T00:38:12;0.00;99.90
29571;DHT22;16814;52.118;11.436;2023-02-28T00:40:39;-0.10;99.90
29571;DHT22;16814;52.118;11.436;2023-02-28T00:43:04;-0.20;99.90
29571;DHT22;16814;52.118;11.436;2023-02-28T00:45:30;-0.10;99.90
29571;DHT22;16814;52.118;11.436;2023-02-28T00:47:55;-0.20;99.90
29571;DHT22;16814;52.118;11.436;2023-02-28T00:50:21;-0.10;99.90
29571;DHT22;16814;52.118;11.436;2023-02-28T00:52:47;0.10;99.90
29571;DHT22;16814;52.118;11.436;2023-02-28T00:55:13;0.00;99.90
29571;DHT22;16814;52.118;11.436;2023-02-28T00:57:38;0.00;99.90
29571;DHT22;16814;52.118;11.436;2023-02-28T01:00:05;-0.10;99.90
29571;DHT22;16814;52.118;11.436;2023-02-28T01:02:31;-0.10;99.90
29571;DHT22;16814;52.118;11.436;2023-02-28T01:04:57;0.00;99.90
29571;DHT22;16814;52.118;11.436;2023-02-28T01:07:24;0.00;99.90
29571;DHT22;16814;52.118;11.436;2023-02-28T01:09:50;0.10;99.90
29571;DHT22;16814;52.118;11.436;2023-02-28T01:12:15;0.20;99.90
29571;DHT22;16814;52.118;11.436;2023-02-28T01:14:41;0.20;99.90
29571;DHT22;16814;52.118;11.436;2023-02-28T01:17:08;0.20;99.90
29571;DHT22;16814;52.118;11.436;2023-02-28T01:19:34;0.30;99.90
29571;DHT22;16814;52.118;11.436;2023-02-28T01:22:04;0.30;99.90
29571;DHT22;16814;52.118;11.436;2023-02-28T01:24:30;0.40;99.90
29571;DHT22;16814;52.118;11.436;2023-02-28T01:26:56;0.40;99.90
29571;DHT22;16814;52.118;11.436;2023-02-28T01:29:24;0.50;99.90
29571;DHT22;16814;52.118;11.436;2023-02-28T01:31:50;0.40;99.90
29571;DHT22;16814;52.118;11.436;2023-02-28T01:34:15;0.40;99.90
29571;DHT22;16814;52.118;11.436;2023-02-28T01:36:41;0.30;99.90
29571;DHT22;16814;52.118;11.436;2023-02-28T01:39:06;0.30;99.90
29571;DHT22;16814;52.118;11.436;2023-02-28T01:41:34;0.30;99.90
29571;DHT22;16814;52.118;11.436;2023-02-28T01:44:06;0.40;99.90
29571;DHT22;16814;52.118;11.436;2023-02-28T01:46:33;0.30;99.90
29571;DHT22;16814;52.118;11.436;2023-02-28T01:49:14;0.20;99.90
29571;DHT22;16814;52.118;11.436;2023-02-28T01:51:43;0.10;99.90
29571;DHT22;16814;52.118;11.436;2023-02-28T01:54:31;0.00;99.90
29571;DHT22;16814;52.118;11.436;2023-02-28T01:57:06;0.10;99.90
29571;DHT22;16814;52.118;11.436;2023-02-28T02:02:20;0.10;99.90
29571;DHT22;16814;52.118;11.436;2023-02-28T02:05:00;0.10;99.90
29571;DHT22;16814;52.118;11.436;2023-02-28T02:07:31;0.10;99.90
29571;DHT22;16814;52.118;11.436;2023-02-28T02:13:01;0.20;99.90
29571;DHT22;16814;52.118;11.436;2023-02-28T02:15:32;0.20;99.90
29571;DHT22;16814;52.118;11.436;2023-02-28T02:21:29;-0.20;99.90
29571;DHT22;16814;52.118;11.436;2023-02-28T02:40:32;-0.30;99.90
29571;DHT22;16814;52.118;11.436;2023-02-28T02:43:13;-0.30;99.90
29571;DHT22;16814;52.118;11.436;2023-02-28T02:45:58;-0.40;99.90
29571;DHT22;16814;52.118;11.436;2023-02-28T02:48:29;-0.40;99.90
29571;DHT22;16814;52.118;11.436;2023-02-28T02:50:59;-0.50;99.90
29571;DHT22;16814;52.118;11.436;2023-02-28T02:53:32;0.20;99.90
29571;DHT22;16814;52.118;11.436;2023-02-28T02:55:59;-0.50;99.90
29571;DHT22;16814;52.118;11.436;2023-02-28T02:58:30;-0.30;99.90
29571;DHT22;16814;52.118;11.436;2023-02-28T03:00:58;-0.40;99.90
29571;DHT22;16814;52.118;11.436;2023-02-28T03:03:26;-0.20;99.90
29571;DHT22;16814;52.118;11.436;2023-02-28T03:05:57;-0.30;99.90
29571;DHT22;16814;52.118;11.436;2023-02-28T03:08:23;-0.40;99.90
29571;DHT22;16814;52.118;11.436;2023-02-28T03:11:01;-0.40;99.90
29571;DHT22;16814;52.118;11.436;2023-02-28T03:16:56;-0.40;99.90
29571;DHT22;16814;52.118;11.436;2023-02-28T03:22:33;-0.40;99.90
29571;DHT22;16814;52.118;11.436;2023-02-28T03:25:25;-0.30;99.90
29571;DHT22;16814;52.118;11.436;2023-02-28T03:28:08;-0.20;99.90
29571;DHT22;16814;52.118;11.436;2023-02-28T03:30:58;-0.10;99.90
29571;DHT22;16814;52.118;11.436;2023-02-28T03:33:30;-0.20;99.90
29571;DHT22;16814;52.118;11.436;2023-02-28T03:36:04;-0.10;99.90
29571;DHT22;16814;52.118;11.436;2023-02-28T03:41:16;0.00;99.90
29571;DHT22;16814;52.118;11.436;2023-02-28T03:43:49;-0.10;99.90
29571;DHT22;16814;52.118;11.436;2023-02-28T03:46:18;0.00;99.90
29571;DHT22;16814;52.118;11.436;2023-02-28T03:48:55;0.00;99.90
29571;DHT22;16814;52.118;11.436;2023-02-28T03:51:23;0.00;99.90
29571;DHT22;16814;52.118;11.436;2023-02-28T03:54:15;0.00;99.90
29571;DHT22;16814;52.118;11.436;2023-02-28T03:57:04;0.10;99.90
29571;DHT22;16814;52.118;11.436;2023-02-28T03:59:42;0.10;99.90
29571;DHT22;16814;52.118;11.436;2023-02-28T04:02:08;0.00;99.90
29571;DHT22;16814;52.118;11.436;2023-02-28T04:04:35;-0.20;99.90
29571;DHT22;16814;52.118;11.436;2023-02-28T04:07:04;-0.20;99.90
29571;DHT22;16814;52.118;11.436;2023-02-28T04:09:30;-0.10;99.90
29571;DHT22;16814;52.118;11.436;2023-02-28T04:11:56;-0.20;99.90
29571;DHT22;16814;52.118;11.436;2023-02-28T04:14:22;-0.20;99.90
29571;DHT22;16814;52.118;11.436;2023-02-28T04:16:48;-0.20;99.90
29571;DHT22;16814;52.118;11.436;2023-02-28T04:19:14;-0.30;99.90
29571;DHT22;16814;52.118;11.436;2023-02-28T04:21:50;-0.30;99.90
29571;DHT22;16814;52.118;11.436;2023-02-28T04:24:18;-0.30;99.90
29571;DHT22;16814;52.118;11.436;2023-02-28T04:26:48;-0.20;99.90
29571;DHT22;16814;52.118;11.436;2023-02-28T04:29:19;-0.30;99.90
29571;DHT22;16814;52.118;11.436;2023-02-28T04:31:45;-0.40;99.90
29571;DHT22;16814;52.118;11.436;2023-02-28T04:34:11;-0.50;99.90
29571;DHT22;16814;52.118;11.436;2023-02-28T04:36:37;-0.60;99.90
29571;DHT22;16814;52.118;11.436;2023-02-28T04:39:02;-0.50;99.90
29571;DHT22;16814;52.118;11.436;2023-02-28T04:41:29;-0.50;99.90
29571;DHT22;16814;52.118;11.436;2023-02-28T04:43:55;-0.50;99.90
29571;DHT22;16814;52.118;11.436;2023-02-28T04:46:21;-0.60;99.90
29571;DHT22;16814;52.118;11.436;2023-02-28T04:48:47;-0.60;99.90
29571;DHT22;16814;52.118;11.436;2023-02-28T04:51:14;-0.40;99.90
29571;DHT22;16814;52.118;11.436;2023-02-28T04:53:41;-0.30;99.90
29571;DHT22;16814;52.118;11.436;2023-02-28T04:56:10;-0.40;99.90
29571;DHT22;16814;52.118;11.436;2023-02-28T04:58:37;-0.50;99.90
29571;DHT22;16814;52.118;11.436;2023-02-28T05:01:05;-0.60;99.90
29571;DHT22;16814;52.118;11.436;2023-02-28T05:03:40;-0.60;99.90
29571;DHT22;16814;52.118;11.436;2023-02-28T05:06:07;-0.60;99.90
29571;DHT22;16814;52.118;11.436;2023-02-28T05:08:33;-0.60;99.90
29571;DHT22;16814;52.118;11.436;2023-02-28T05:10:58;-0.70;99.90
29571;DHT22;16814;52.118;11.436;2023-02-28T05:13:26;-0.70;99.90
29571;DHT22;16814;52.118;11.436;2023-02-28T05:15:52;-0.70;99.90
29571;DHT22;16814;52.118;11.436;2023-02-28T05:18:18;-0.80;99.90
29571;DHT22;16814;52.118;11.436;2023-02-28T05:20:43;-0.90;99.90
29571;DHT22;16814;52.118;11.436;2023-02-28T05:23:12;-0.70;99.90
29571;DHT22;16814;52.118;11.436;2023-02-28T05:25:41;-0.70;99.90
29571;DHT22;16814;52.118;11.436;2023-02-28T05:28:07;-0.90;99.90
29571;DHT22;16814;52.118;11.436;2023-02-28T05:30:33;-0.90;99.90
29571;DHT22;16814;52.118;11.436;2023-02-28T05:32:59;-1.00;99.90
29571;DHT22;16814;52.118;11.436;2023-02-28T05:35:25;-1.00;99.90
29571;DHT22;16814;52.118;11.436;2023-02-28T05:37:51;-1.10;99.90
29571;DHT22;16814;52.118;11.436;2023-02-28T05:40:17;-1.10;99.90
29571;DHT22;16814;52.118;11.436;2023-02-28T05:42:43;-1.00;99.90
29571;DHT22;16814;52.118;11.436;2023-02-28T05:45:09;-1.00;99.90
29571;DHT22;16814;52.118;11.436;2023-02-28T05:47:35;-1.10;99.90
29571;DHT22;16814;52.118;11.436;2023-02-28T05:50:00;-1.10;99.90
29571;DHT22;16814;52.118;11.436;2023-02-28T05:52:27;-0.90;99.90
29571;DHT22;16814;52.118;11.436;2023-02-28T05:54:53;-1.00;99.90
29571;DHT22;16814;52.118;11.436;2023-02-28T05:57:18;-1.10;99.90
29571;DHT22;16814;52.118;11.436;2023-02-28T05:59:44;-1.20;99.90
29571;DHT22;16814;52.118;11.436;2023-02-28T06:02:14;-1.20;99.90
29571;DHT22;16814;52.118;11.436;2023-02-28T06:04:40;-1.30;99.90
29571;DHT22;16814;52.118;11.436;2023-02-28T06:07:07;-1.00;99.90
29571;DHT22;16814;52.118;11.436;2023-02-28T06:09:32;-1.00;99.90
29571;DHT22;16814;52.118;11.436;2023-02-28T06:12:02;-1.00;99.90
29571;DHT22;16814;52.118;11.436;2023-02-28T06:14:29;-0.90;99.90
29571;DHT22;16814;52.118;11.436;2023-02-28T06:16:56;-1.00;99.90
29571;DHT22;16814;52.118;11.436;2023-02-28T06:19:22;-0.90;99.90
29571;DHT22;16814;52.118;11.436;2023-02-28T06:21:49;-1.00;99.90
29571;DHT22;16814;52.118;11.436;2023-02-28T06:24:16;-1.00;99.90
29571;DHT22;16814;52.118;11.436;2023-02-28T06:26:41;-1.00;99.90
29571;DHT22;16814;52.118;11.436;2023-02-28T06:29:07;-1.10;99.90
29571;DHT22;16814;52.118;11.436;2023-02-28T06:31:32;-1.00;99.90
29571;DHT22;16814;52.118;11.436;2023-02-28T06:33:58;-1.00;99.90
29571;DHT22;16814;52.118;11.436;2023-02-28T06:36:23;-0.90;99.90
29571;DHT22;16814;52.118;11.436;2023-02-28T06:38:49;-0.90;99.90
29571;DHT22;16814;52.118;11.436;2023-02-28T06:41:21;-0.90;99.90
29571;DHT22;16814;52.118;11.436;2023-02-28T06:43:47;-1.20;99.90
29571;DHT22;16814;52.118;11.436;2023-02-28T06:46:14;-1.10;99.90
29571;DHT22;16814;52.118;11.436;2023-02-28T06:48:42;-1.30;99.90
29571;DHT22;16814;52.118;11.436;2023-02-28T06:51:10;-1.10;99.90
29571;DHT22;16814;52.118;11.436;2023-02-28T06:53:36;-1.10;99.90
29571;DHT22;16814;52.118;11.436;2023-02-28T06:56:05;-1.10;99.90
29571;DHT22;16814;52.118;11.436;2023-02-28T06:58:31;-1.10;99.90
29571;DHT22;16814;52.118;11.436;2023-02-28T07:00:57;-1.00;99.90
29571;DHT22;16814;52.118;11.436;2023-02-28T07:03:23;-0.90;99.90
29571;DHT22;16814;52.118;11.436;2023-02-28T07:05:48;-0.80;99.90
29571;DHT22;16814;52.118;11.436;2023-02-28T07:08:14;-0.80;99.90
29571;DHT22;16814;52.118;11.436;2023-02-28T07:10:40;-0.70;99.90
29571;DHT22;16814;52.118;11.436;2023-02-28T07:13:08;-0.50;99.90
29571;DHT22;16814;52.118;11.436;2023-02-28T07:15:35;-0.40;99.90
29571;DHT22;16814;52.118;11.436;2023-02-28T07:18:00;-0.40;99.90
29571;DHT22;16814;52.118;11.436;2023-02-28T07:20:26;-0.40;99.90
29571;DHT22;16814;52.118;11.436;2023-02-28T07:22:51;-0.40;99.90
29571;DHT22;16814;52.118;11.436;2023-02-28T07:25:27;-0.50;99.90
29571;DHT22;16814;52.118;11.436;2023-02-28T07:27:55;-0.50;99.90
29571;DHT22;16814;52.118;11.436;2023-02-28T07:30:22;-0.70;99.90
29571;DHT22;16814;52.118;11.436;2023-02-28T07:32:48;-0.60;99.90
29571;DHT22;16814;52.118;11.436;2023-02-28T07:35:13;-0.40;99.90
29571;DHT22;16814;52.118;11.436;2023-02-28T07:37:41;-0.40;99.90
29571;DHT22;16814;52.118;11.436;2023-02-28T07:40:09;-0.30;99.90
29571;DHT22;16814;52.118;11.436;2023-02-28T07:42:37;-0.20;99.90
29571;DHT22;16814;52.118;11.436;2023-02-28T07:45:04;-0.20;99.90
29571;DHT22;16814;52.118;11.436;2023-02-28T07:47:30;-0.20;99.90
29571;DHT22;16814;52.118;11.436;2023-02-28T07:49:57;-0.10;99.90
29571;DHT22;16814;52.118;11.436;2023-02-28T07:52:23;-0.20;99.90
29571;DHT22;16814;52.118;11.436;2023-02-28T07:54:50;-0.10;99.90
29571;DHT22;16814;52.118;11.436;2023-02-28T07:57:16;0.20;99.90
29571;DHT22;16814;52.118;11.436;2023-02-28T07:59:41;0.10;99.90
29571;DHT22;16814;52.118;11.436;2023-02-28T08:02:13;0.10;99.90
29571;DHT22;16814;52.118;11.436;2023-02-28T08:04:39;0.20;99.90
29571;DHT22;16814;52.118;11.436;2023-02-28T08:07:05;0.50;99.90
29571;DHT22;16814;52.118;11.436;2023-02-28T08:09:31;0.30;99.90
29571;DHT22;16814;52.118;11.436;2023-02-28T08:12:00;0.50;99.90
29571;DHT22;16814;52.118;11.436;2023-02-28T08:14:25;0.50;99.90
29571;DHT22;16814;52.118;11.436;2023-02-28T08:16:51;0.60;99.90
29571;DHT22;16814;52.118;11.436;2023-02-28T08:19:17;0.60;99.90
29571;DHT22;16814;52.118;11.436;2023-02-28T08:21:42;0.60;99.90
29571;DHT22;16814;52.118;11.436;2023-02-28T08:24:08;0.70;99.90
29571;DHT22;16814;52.118;11.436;2023-02-28T08:26:33;0.80;99.90
29571;DHT22;16814;52.118;11.436;2023-02-28T08:28:59;0.90;99.90
29571;DHT22;16814;52.118;11.436;2023-02-28T08:31:24;0.90;99.90
29571;DHT22;16814;52.118;11.436;2023-02-28T08:33:50;0.60;99.90
29571;DHT22;16814;52.118;11.436;2023-02-28T08:36:17;0.60;99.90
29571;DHT22;16814;52.118;11.436;2023-02-28T08:38:43;0.60;99.90
29571;DHT22;16814;52.118;11.436;2023-02-28T08:41:12;0.90;99.90
29571;DHT22;16814;52.118;11.436;2023-02-28T08:43:38;1.20;99.90
29571;DHT22;16814;52.118;11.436;2023-02-28T08:46:05;1.30;99.90
29571;DHT22;16814;52.118;11.436;2023-02-28T08:48:33;1.50;99.90
29571;DHT22;16814;52.118;11.436;2023-02-28T08:51:05;1.60;99.90
29571;DHT22;16814;52.118;11.436;2023-02-28T08:53:31;1.60;99.90
29571;DHT22;16814;52.118;11.436;2023-02-28T08:56:06;1.70;99.90
29571;DHT22;16814;52.118;11.436;2023-02-28T08:58:33;1.80;99.90
29571;DHT22;16814;52.118;11.436;2023-02-28T09:01:00;1.60;99.90
29571;DHT22;16814;52.118;11.436;2023-02-28T09:03:32;1.60;99.90
29571;DHT22;16814;52.118;11.436;2023-02-28T09:05:59;1.70;99.90
29571;DHT22;16814;52.118;11.436;2023-02-28T09:08:27;1.80;99.90
29571;DHT22;16814;52.118;11.436;2023-02-28T09:10:54;1.90;99.90
29571;DHT22;16814;52.118;11.436;2023-02-28T09:13:21;2.20;99.90
29571;DHT22;16814;52.118;11.436;2023-02-28T09:15:47;2.30;99.90
29571;DHT22;16814;52.118;11.436;2023-02-28T09:18:13;2.20;99.90
29571;DHT22;16814;52.118;11.436;2023-02-28T09:20:39;2.40;99.90
29571;DHT22;16814;52.118;11.436;2023-02-28T09:23:06;2.70;99.90
29571;DHT22;16814;52.118;11.436;2023-02-28T09:25:32;3.10;99.90
29571;DHT22;16814;52.118;11.436;2023-02-28T09:27:57;3.10;99.90
29571;DHT22;16814;52.118;11.436;2023-02-28T09:30:23;3.20;99.90
29571;DHT22;16814;52.118;11.436;2023-02-28T09:32:48;3.20;99.90
29571;DHT22;16814;52.118;11.436;2023-02-28T09:35:21;3.40;99.90
29571;DHT22;16814;52.118;11.436;2023-02-28T09:37:48;3.50;99.90
29571;DHT22;16814;52.118;11.436;2023-02-28T09:40:14;3.50;99.90
29571;DHT22;16814;52.118;11.436;2023-02-28T09:42:44;3.50;99.90
29571;DHT22;16814;52.118;11.436;2023-02-28T09:45:37;3.70;99.90
29571;DHT22;16814;52.118;11.436;2023-02-28T09:48:10;4.00;99.90
29571;DHT22;16814;52.118;11.436;2023-02-28T09:53:11;4.20;99.90
29571;DHT22;16814;52.118;11.436;2023-02-28T09:55:51;4.40;99.90
29571;DHT22;16814;52.118;11.436;2023-02-28T09:58:24;4.70;99.90
29571;DHT22;16814;52.118;11.436;2023-02-28T10:01:27;5.00;99.90
29571;DHT22;16814;52.118;11.436;2023-02-28T10:04:08;5.10;99.90
29571;DHT22;16814;52.118;11.436;2023-02-28T10:06:54;5.00;99.90
29571;DHT22;16814;52.118;11.436;2023-02-28T10:09:26;5.10;99.90
29571;DHT22;16814;52.118;11.436;2023-02-28T10:11:56;5.20;99.90
29571;DHT22;16814;52.118;11.436;2023-02-28T10:14:27;5.40;99.90
29571;DHT22;16814;52.118;11.436;2023-02-28T10:16:58;5.20;99.90
29571;DHT22;16814;52.118;11.436;2023-02-28T10:22:21;5.40;99.90
29571;DHT22;16814;52.118;11.436;2023-02-28T10:24:51;5.50;99.90
29571;DHT22;16814;52.118;11.436;2023-02-28T10:27:21;5.60;99.90
29571;DHT22;16814;52.118;11.436;2023-02-28T10:29:49;5.70;99.90
29571;DHT22;16814;52.118;11.436;2023-02-28T10:32:18;5.30;99.90
29571;DHT22;16814;52.118;11.436;2023-02-28T10:34:44;5.00;99.90
29571;DHT22;16814;52.118;11.436;2023-02-28T10:37:11;5.00;99.90
29571;DHT22;16814;52.118;11.436;2023-02-28T10:39:46;5.00;99.90
29571;DHT22;16814;52.118;11.436;2023-02-28T10:42:37;5.10;99.90
29571;DHT22;16814;52.118;11.436;2023-02-28T10:45:14;5.30;99.90
29571;DHT22;16814;52.118;11.436;2023-02-28T10:47:59;5.50;99.90
29571;DHT22;16814;52.118;11.436;2023-02-28T10:50:31;5.70;99.90
29571;DHT22;16814;52.118;11.436;2023-02-28T10:55:32;5.40;98.80
29571;DHT22;16814;52.118;11.436;2023-02-28T10:57:58;5.70;99.90
29571;DHT22;16814;52.118;11.436;2023-02-28T11:00:25;5.90;99.90
29571;DHT22;16814;52.118;11.436;2023-02-28T11:02:56;6.10;96.70
29571;DHT22;16814;52.118;11.436;2023-02-28T11:05:34;6.30;99.40
29571;DHT22;16814;52.118;11.436;2023-02-28T11:08:12;6.40;97.50
29571;DHT22;16814;52.118;11.436;2023-02-28T11:10:39;5.80;98.20
29571;DHT22;16814;52.118;11.436;2023-02-28T11:13:17;6.00;98.30
29571;DHT22;16814;52.118;11.436;2023-02-28T11:15:53;5.70;97.20
29571;DHT22;16814;52.118;11.436;2023-02-28T11:18:29;5.80;96.30
29571;DHT22;16814;52.118;11.436;2023-02-28T11:20:58;5.80;96.60
29571;DHT22;16814;52.118;11.436;2023-02-28T11:23:29;5.60;96.40
29571;DHT22;16814;52.118;11.436;2023-02-28T11:25:59;5.30;97.30
29571;DHT22;16814;52.118;11.436;2023-02-28T11:28:29;5.50;97.90
29571;DHT22;16814;52.118;11.436;2023-02-28T11:33:41;5.40;99.00
29571;DHT22;16814;52.118;11.436;2023-02-28T11:38:45;5.30;97.90
29571;DHT22;16814;52.118;11.436;2023-02-28T11:41:21;5.20;96.90
29571;DHT22;16814;52.118;11.436;2023-02-28T11:44:05;5.20;97.10
29571;DHT22;16814;52.118;11.436;2023-02-28T11:46:51;5.40;97.20
29571;DHT22;16814;52.118;11.436;2023-02-28T11:49:22;5.50;95.90
29571;DHT22;16814;52.118;11.436;2023-02-28T11:55:14;5.40;98.70
29571;DHT22;16814;52.118;11.436;2023-02-28T12:00:46;5.70;98.40
29571;DHT22;16814;52.118;11.436;2023-02-28T12:06:08;5.50;98.20
29571;DHT22;16814;52.118;11.436;2023-02-28T12:14:33;5.40;98.10
29571;DHT22;16814;52.118;11.436;2023-02-28T12:17:22;5.30;99.20
29571;DHT22;16814;52.118;11.436;2023-02-28T12:19:57;5.50;99.90
29571;DHT22;16814;52.118;11.436;2023-02-28T12:27:40;5.40;96.90
29571;DHT22;16814;52.118;11.436;2023-02-28T12:30:17;5.50;97.40
29571;DHT22;16814;52.118;11.436;2023-02-28T12:32:52;5.40;98.80
29571;DHT22;16814;52.118;11.436;2023-02-28T12:35:28;5.40;97.40
29571;DHT22;16814;52.118;11.436;2023-02-28T12:38:04;5.30;96.00
29571;DHT22;16814;52.118;11.436;2023-02-28T12:40:58;5.10;96.60
29571;DHT22;16814;52.118;11.436;2023-02-28T12:43:30;5.10;96.40
29571;DHT22;16814;52.118;11.436;2023-02-28T12:46:11;5.20;98.20
29571;DHT22;16814;52.118;11.436;2023-02-28T12:48:44;5.10;97.40
29571;DHT22;16814;52.118;11.436;2023-02-28T12:51:12;5.20;98.70
29571;DHT22;16814;52.118;11.436;2023-02-28T12:56:52;5.30;97.00
29571;DHT22;16814;52.118;11.436;2023-02-28T12:59:53;5.20;99.30
29571;DHT22;16814;52.118;11.436;2023-02-28T13:10:53;5.40;98.10
29571;DHT22;16814;52.118;11.436;2023-02-28T13:13:23;5.40;99.00
29571;DHT22;16814;52.118;11.436;2023-02-28T13:16:09;5.30;97.80
29571;DHT22;16814;52.118;11.436;2023-02-28T13:18:42;5.60;99.40
29571;DHT22;16814;52.118;11.436;2023-02-28T13:21:29;5.60;98.70
29571;DHT22;16814;52.118;11.436;2023-02-28T13:24:00;5.60;99.60
29571;DHT22;16814;52.118;11.436;2023-02-28T13:29:36;5.60;99.10
29571;DHT22;16814;52.118;11.436;2023-02-28T13:34:33;5.30;98.70
29571;DHT22;16814;52.118;11.436;2023-02-28T13:39:56;5.30;97.50
29571;DHT22;16814;52.118;11.436;2023-02-28T13:42:23;5.20;98.00
29571;DHT22;16814;52.118;11.436;2023-02-28T13:47:42;5.40;97.60
29571;DHT22;16814;52.118;11.436;2023-02-28T13:50:41;5.20;97.70
29571;DHT22;16814;52.118;11.436;2023-02-28T13:56:07;5.20;99.60
29571;DHT22;16814;52.118;11.436;2023-02-28T13:59:02;5.10;98.30
29571;DHT22;16814;52.118;11.436;2023-02-28T14:05:01;5.30;98.60
29571;DHT22;16814;52.118;11.436;2023-02-28T14:08:08;5.10;96.60
29571;DHT22;16814;52.118;11.436;2023-02-28T14:11:02;5.10;97.20
29571;DHT22;16814;52.118;11.436;2023-02-28T14:13:46;5.10;96.90
29571;DHT22;16814;52.118;11.436;2023-02-28T14:16:47;5.00;97.70
29571;DHT22;16814;52.118;11.436;2023-02-28T14:19:24;5.00;97.70
29571;DHT22;16814;52.118;11.436;2023-02-28T14:25:15;5.10;98.50
29571;DHT22;16814;52.118;11.436;2023-02-28T14:31:07;5.30;98.40
29571;DHT22;16814;52.118;11.436;2023-02-28T14:36:39;5.20;97.60
29571;DHT22;16814;52.118;11.436;2023-02-28T14:39:12;5.10;99.10
29571;DHT22;16814;52.118;11.436;2023-02-28T14:41:43;5.10;99.90
29571;DHT22;16814;52.118;11.436;2023-02-28T14:44:17;5.20;99.90
29571;DHT22;16814;52.118;11.436;2023-02-28T14:46:59;5.20;98.30
29571;DHT22;16814;52.118;11.436;2023-02-28T14:49:36;5.30;98.40
29571;DHT22;16814;52.118;11.436;2023-02-28T14:52:19;5.10;97.70
29571;DHT22;16814;52.118;11.436;2023-02-28T14:55:03;5.10;97.20
29571;DHT22;16814;52.118;11.436;2023-02-28T14:57:33;5.00;98.40
29571;DHT22;16814;52.118;11.436;2023-02-28T15:02:43;4.90;98.60
29571;DHT22;16814;52.118;11.436;2023-02-28T15:07:36;4.80;99.90
29571;DHT22;16814;52.118;11.436;2023-02-28T15:13:07;4.70;99.90
29571;DHT22;16814;52.118;11.436;2023-02-28T15:15:53;4.60;99.10
29571;DHT22;16814;52.118;11.436;2023-02-28T15:21:12;4.80;99.40
29571;DHT22;16814;52.118;11.436;2023-02-28T15:23:40;4.90;99.90
29571;DHT22;16814;52.118;11.436;2023-02-28T15:26:17;4.90;99.90
29571;DHT22;16814;52.118;11.436;2023-02-28T15:28:48;5.00;99.90
29571;DHT22;16814;52.118;11.436;2023-02-28T15:31:32;5.00;99.90
29571;DHT22;16814;52.118;11.436;2023-02-28T15:34:12;5.00;99.90
29571;DHT22;16814;52.118;11.436;2023-02-28T15:36:43;4.70;99.40
29571;DHT22;16814;52.118;11.436;2023-02-28T15:39:28;4.70;99.90
29571;DHT22;16814;52.118;11.436;2023-02-28T15:42:19;4.60;99.90
29571;DHT22;16814;52.118;11.436;2023-02-28T15:44:46;4.60;99.90
29571;DHT22;16814;52.118;11.436;2023-02-28T15:47:27;4.50;99.70
29571;DHT22;16814;52.118;11.436;2023-02-28T15:50:03;4.40;99.90
29571;DHT22;16814;52.118;11.436;2023-02-28T15:52:45;4.30;99.90
29571;DHT22;16814;52.118;11.436;2023-02-28T15:55:27;4.40;99.90
29571;DHT22;16814;52.118;11.436;2023-02-28T15:57:55;4.40;99.90
29571;DHT22;16814;52.118;11.436;2023-02-28T16:00:30;4.40;99.90
29571;DHT22;16814;52.118;11.436;2023-02-28T16:02:59;4.30;99.90
29571;DHT22;16814;52.118;11.436;2023-02-28T16:05:32;4.30;99.90
29571;DHT22;16814;52.118;11.436;2023-02-28T16:08:10;4.40;99.90
29571;DHT22;16814;52.118;11.436;2023-02-28T16:10:39;4.30;99.90
29571;DHT22;16814;52.118;11.436;2023-02-28T16:13:05;4.10;99.90
29571;DHT22;16814;52.118;11.436;2023-02-28T16:15:41;3.70;99.90
29571;DHT22;16814;52.118;11.436;2023-02-28T16:18:17;4.00;99.90
29571;DHT22;16814;52.118;11.436;2023-02-28T16:20:44;4.10;99.90
29571;DHT22;16814;52.118;11.436;2023-02-28T16:23:10;3.90;99.90
29571;DHT22;16814;52.118;11.436;2023-02-28T16:25:41;3.90;99.90
29571;DHT22;16814;52.118;11.436;2023-02-28T16:28:23;3.80;99.90
29571;DHT22;16814;52.118;11.436;2023-02-28T16:30:55;3.70;99.90
29571;DHT22;16814;52.118;11.436;2023-02-28T16:33:22;3.70;99.90
29571;DHT22;16814;52.118;11.436;2023-02-28T16:35:51;3.70;99.90
29571;DHT22;16814;52.118;11.436;2023-02-28T16:38:17;3.80;99.90
29571;DHT22;16814;52.118;11.436;2023-02-28T16:40:45;3.60;99.90
29571;DHT22;16814;52.118;11.436;2023-02-28T16:43:17;3.40;99.90
29571;DHT22;16814;52.118;11.436;2023-02-28T16:45:45;3.30;99.90
29571;DHT22;16814;52.118;11.436;2023-02-28T16:48:14;3.20;99.90
29571;DHT22;16814;52.118;11.436;2023-02-28T16:50:43;3.00;99.90
29571;DHT22;16814;52.118;11.436;2023-02-28T16:53:12;2.70;99.90
29571;DHT22;16814;52.118;11.436;2023-02-28T16:55:40;2.50;99.90
29571;DHT22;16814;52.118;11.436;2023-02-28T16:58:06;2.50;99.90
29571;DHT22;16814;52.118;11.436;2023-02-28T17:00:33;2.50;99.90
29571;DHT22;16814;52.118;11.436;2023-02-28T17:03:00;2.70;99.90
29571;DHT22;16814;52.118;11.436;2023-02-28T17:05:32;2.60;99.90
29571;DHT22;16814;52.118;11.436;2023-02-28T17:08:00;2.60;99.90
29571;DHT22;16814;52.118;11.436;2023-02-28T17:10:28;2.40;99.90
29571;DHT22;16814;52.118;11.436;2023-02-28T17:12:54;2.20;99.90
29571;DHT22;16814;52.118;11.436;2023-02-28T17:15:21;2.10;99.90
29571;DHT22;16814;52.118;11.436;2023-02-28T17:17:49;2.20;99.90
29571;DHT22;16814;52.118;11.436;2023-02-28T17:20:19;2.10;99.90
29571;DHT22;16814;52.118;11.436;2023-02-28T17:22:55;2.00;99.90
29571;DHT22;16814;52.118;11.436;2023-02-28T17:25:23;1.90;99.90
29571;DHT22;16814;52.118;11.436;2023-02-28T17:27:53;1.80;99.90
29571;DHT22;16814;52.118;11.436;2023-02-28T17:30:25;1.70;99.90
29571;DHT22;16814;52.118;11.436;2023-02-28T17:32:55;1.70;99.90
29571;DHT22;16814;52.118;11.436;2023-02-28T17:35:21;1.60;99.90
29571;DHT22;16814;52.118;11.436;2023-02-28T17:37:46;1.50;99.90
29571;DHT22;16814;52.118;11.436;2023-02-28T17:40:20;1.50;99.90
29571;DHT22;16814;52.118;11.436;2023-02-28T17:42:46;1.40;99.90
29571;DHT22;16814;52.118;11.436;2023-02-28T17:45:14;1.30;99.90